Mr Connor — WDF2688 — position and weather

sailwx.info

Track history (hours):
 
Tides and Currents Weather Stations Pressure Air Temp Water Temp Dewpoint Dewpoint Depression Visibility Wind Speed Wind Dir Waves Ship Positions

Mr Connor

Owner: Marquette Transportation Company Offshore LLC, Jefferson, LA. More information available from US FCC via Universal Licensing System and Coast Guard Vessel Documentation Center.

Last reported at 2018-Feb-25 19:28 UTC. Time now 2018-Feb-25 19:44 UTC.
Position N 32°02' W 080°54'.

Length 20 m; draft 3 m.

Type: Tug. MMSI: 367430750.

Date/timePositionNaut miles runAvg speedWind from/ knotsBaromVisibWave heightAir tempDewpointWater temp
2018-Feb-25 19:28N 32°02' W 080°54'0 0.0
2018-Feb-25 18:58N 32°02' W 080°54'0 0.0
2018-Feb-25 18:28N 32°02' W 080°54'0 0.0
2018-Feb-25 17:52N 32°02' W 080°55'0 0.0
2018-Feb-25 17:28N 32°02' W 080°55'0 0.0
2018-Feb-25 16:55N 32°02' W 080°54'0 0.2
2018-Feb-25 16:30N 32°02' W 080°54'0 0.2
2018-Feb-25 16:00N 32°02' W 080°54'0 0.0
2018-Feb-25 15:30N 32°02' W 080°54'0 0.0
2018-Feb-25 15:00N 32°02' W 080°54'0 0.0
2018-Feb-25 14:30N 32°02' W 080°54'0 0.0
2018-Feb-25 14:00N 32°02' W 080°54'0 0.0
2018-Feb-25 13:30N 32°02' W 080°54'0 0.0
2018-Feb-25 13:00N 32°02' W 080°54'0 0.0
2018-Feb-25 12:30N 32°02' W 080°54'0 0.0
2018-Feb-25 12:00N 32°02' W 080°54'0 0.0
2018-Feb-25 11:30N 32°02' W 080°54'0 0.1
2018-Feb-25 11:00N 32°02' W 080°54'0 0.0
2018-Feb-25 10:30N 32°02' W 080°54'0 0.1
2018-Feb-25 09:59N 32°02' W 080°54'0 0.2
2018-Feb-25 09:30N 32°02' W 080°54'0 0.0
2018-Feb-25 09:00N 32°02' W 080°54'0 0.1
2018-Feb-25 08:30N 32°02' W 080°54'0 0.0
2018-Feb-25 08:00N 32°02' W 080°54'0 0.0
2018-Feb-25 07:30N 32°02' W 080°54'0 0.0
2018-Feb-25 07:00N 32°02' W 080°54'0 0.0
2018-Feb-25 06:30N 32°02' W 080°54'0 0.0
2018-Feb-25 06:00N 32°02' W 080°54'0 0.0
2018-Feb-25 05:18N 32°02' W 080°54'0 0.0
2018-Feb-25 05:00N 32°02' W 080°54'0 0.0
2018-Feb-25 04:30N 32°02' W 080°54'0 0.0
2018-Feb-25 04:00N 32°02' W 080°54'0 0.1
2018-Feb-25 03:30N 32°02' W 080°54'0 0.1
2018-Feb-25 03:00N 32°02' W 080°54'0 0.0
2018-Feb-25 02:30N 32°02' W 080°54'0 0.1
2018-Feb-25 02:00N 32°02' W 080°54'0 0.0
2018-Feb-25 01:30N 32°02' W 080°54'0 0.0
2018-Feb-25 01:00N 32°02' W 080°54'2 4.6
2018-Feb-25 00:30N 32°04' W 080°57'4 8.9
2018-Feb-25 00:00N 32°05' W 081°01'4 8.3
2018-Feb-24 23:30N 32°06' W 081°06'0 0.5
2018-Feb-24 23:00N 32°06' W 081°07'0 0.0
2018-Feb-24 22:30N 32°06' W 081°07'2 4.9
2018-Feb-24 22:00N 32°05' W 081°04'0 0.9
2018-Feb-24 21:30N 32°05' W 081°03'0 0.9
2018-Feb-24 21:00N 32°05' W 081°04'0 0.0
2018-Feb-24 20:30N 32°05' W 081°04'0 0.0
2018-Feb-24 20:00N 32°05' W 081°04'0 0.0
2018-Feb-24 19:30N 32°05' W 081°04'0 0.0
2018-Feb-24 19:00N 32°05' W 081°04'0 0.0
2018-Feb-24 18:30N 32°05' W 081°04'0 0.0
2018-Feb-24 18:00N 32°05' W 081°04'0 0.0
2018-Feb-24 17:30N 32°05' W 081°04'0 0.0
2018-Feb-24 17:00N 32°05' W 081°04'0 0.0
2018-Feb-24 16:30N 32°05' W 081°04'0 0.0
2018-Feb-24 16:00N 32°05' W 081°04'0 0.0
2018-Feb-24 15:30N 32°05' W 081°04'0 0.0
2018-Feb-24 15:00N 32°05' W 081°04'0 0.0
2018-Feb-24 14:30N 32°05' W 081°04'0 0.0
2018-Feb-24 14:00N 32°05' W 081°04'0 0.0
2018-Feb-24 13:30N 32°05' W 081°04'0 0.0
2018-Feb-24 13:00N 32°05' W 081°04'0 0.0
2018-Feb-24 12:30N 32°05' W 081°04'0 0.3
2018-Feb-24 12:00N 32°05' W 081°04'2 3.5
2018-Feb-24 11:30N 32°05' W 081°02'1 2.9
2018-Feb-24 11:00N 32°06' W 081°00'1 2.3
2018-Feb-24 10:30N 32°05' W 080°59'1 1.4
2018-Feb-24 10:00N 32°05' W 080°59'2 3.4
2018-Feb-24 09:30N 32°04' W 080°57'2 4.1
2018-Feb-24 09:00N 32°02' W 080°55'1 1.0
2018-Feb-24 08:29N 32°02' W 080°54'0 0.1
2018-Feb-24 07:58N 32°02' W 080°54'0 0.0
2018-Feb-24 07:16N 32°02' W 080°55'0 0.0
2018-Feb-24 06:46N 32°02' W 080°55'0 0.1
2018-Feb-24 06:30N 32°02' W 080°54'0 0.0
2018-Feb-24 06:01N 32°02' W 080°54'0 0.0
2018-Feb-24 05:30N 32°02' W 080°54'0 0.0
2018-Feb-24 05:00N 32°02' W 080°54'0 0.0
2018-Feb-24 04:30N 32°02' W 080°54'0 0.0
2018-Feb-24 04:01N 32°02' W 080°54'0 0.0
2018-Feb-24 03:30N 32°02' W 080°54'0 0.0
2018-Feb-24 03:00N 32°02' W 080°54'0 0.0
2018-Feb-24 02:30N 32°02' W 080°54'0 0.2
2018-Feb-24 02:00N 32°02' W 080°54'0 0.0
2018-Feb-24 01:30N 32°02' W 080°54'0 0.0
2018-Feb-24 01:00N 32°02' W 080°54'0 0.0
2018-Feb-24 00:30N 32°02' W 080°54'0 0.0
2018-Feb-23 23:51N 32°02' W 080°54'0 0.0
2018-Feb-23 23:27N 32°02' W 080°54'0 0.0
2018-Feb-23 22:57N 32°02' W 080°54'0 0.0
2018-Feb-23 22:29N 32°02' W 080°54'0 0.0
2018-Feb-23 21:58N 32°02' W 080°54'0 0.0
2018-Feb-23 21:28N 32°02' W 080°54'0 0.0
2018-Feb-23 20:58N 32°02' W 080°54'0 0.0
2018-Feb-23 20:22N 32°02' W 080°54'0 0.0
2018-Feb-23 19:52N 32°02' W 080°54'0 0.2
2018-Feb-23 19:22N 32°02' W 080°54'0 0.1
2018-Feb-23 18:58N 32°02' W 080°54'0 0.0
2018-Feb-23 18:28N 32°02' W 080°54'0 0.0
2018-Feb-23 17:52N 32°02' W 080°54'0 0.0
2018-Feb-23 17:22N 32°02' W 080°54'0 0.0
2018-Feb-23 16:58N 32°02' W 080°54'0 0.1
2018-Feb-23 16:28N 32°02' W 080°55'0 0.1
2018-Feb-23 15:46N 32°02' W 080°54'0 0.1
2018-Feb-23 15:28N 32°02' W 080°54'0 0.0
2018-Feb-23 14:58N 32°02' W 080°54'0 0.0
2018-Feb-23 14:28N 32°02' W 080°54'0 0.2
2018-Feb-23 13:52N 32°02' W 080°54'0 0.0
2018-Feb-23 13:22N 32°02' W 080°54'0 0.0
2018-Feb-23 12:52N 32°02' W 080°54'0 0.0
2018-Feb-23 12:28N 32°02' W 080°54'0 0.0
2018-Feb-23 11:52N 32°02' W 080°54'0 0.0
2018-Feb-23 11:28N 32°02' W 080°54'0 0.0
2018-Feb-23 10:58N 32°02' W 080°54'0 0.0
2018-Feb-23 10:28N 32°02' W 080°54'0 0.0
2018-Feb-23 09:58N 32°02' W 080°54'0 0.0
2018-Feb-23 09:28N 32°02' W 080°54'0 0.0
2018-Feb-23 08:58N 32°02' W 080°54'0 0.0
2018-Feb-23 08:28N 32°02' W 080°54'0 0.0
2018-Feb-23 07:58N 32°02' W 080°54'0 0.0
2018-Feb-23 07:28N 32°02' W 080°54'0 0.2
2018-Feb-23 06:58N 32°02' W 080°54'0 0.1
2018-Feb-23 06:28N 32°02' W 080°54'0 0.0
2018-Feb-23 05:52N 32°02' W 080°54'0 0.0
2018-Feb-23 05:28N 32°02' W 080°54'0 0.0
2018-Feb-23 04:58N 32°02' W 080°54'0 0.0
2018-Feb-23 04:28N 32°02' W 080°54'0 0.0
2018-Feb-23 03:58N 32°02' W 080°54'0 0.0
2018-Feb-23 03:28N 32°02' W 080°54'0 0.0
2018-Feb-23 02:58N 32°02' W 080°54'0 0.0
2018-Feb-23 02:28N 32°02' W 080°54'0 0.0
2018-Feb-23 01:40N 32°02' W 080°54'0 0.0
2018-Feb-23 01:28N 32°02' W 080°54'0 0.2
2018-Feb-23 00:58N 32°02' W 080°54'0 0.0
2018-Feb-23 00:28N 32°02' W 080°54'0 0.0
2018-Feb-22 23:58N 32°02' W 080°54'0 0.0
2018-Feb-22 23:28N 32°02' W 080°54'0 0.0
2018-Feb-22 22:40N 32°02' W 080°54'0 0.0
2018-Feb-22 22:28N 32°02' W 080°54'0 0.0
2018-Feb-22 21:52N 32°02' W 080°54'0 0.0
2018-Feb-22 21:28N 32°02' W 080°54'0 0.0
2018-Feb-22 20:40N 32°02' W 080°54'0 0.0
2018-Feb-22 20:10N 32°02' W 080°54'0 0.1
2018-Feb-22 19:58N 32°02' W 080°54'0 0.0
2018-Feb-22 19:28N 32°02' W 080°54'0 0.0
2018-Feb-22 18:52N 32°02' W 080°54'0 0.3
2018-Feb-22 18:31N 32°02' W 080°54'0 0.0
2018-Feb-22 17:50N 32°02' W 080°55'0 0.0
2018-Feb-22 17:26N 32°02' W 080°55'0 0.0
2018-Feb-22 16:50N 32°02' W 080°54'0 0.0
2018-Feb-22 16:26N 32°02' W 080°54'0 0.0
2018-Feb-22 15:56N 32°02' W 080°54'0 0.0
2018-Feb-22 15:26N 32°02' W 080°54'0 0.0
2018-Feb-22 14:50N 32°02' W 080°54'0 0.0
2018-Feb-22 14:20N 32°02' W 080°54'0 0.0
2018-Feb-22 13:56N 32°02' W 080°54'0 0.0
2018-Feb-22 13:02N 32°02' W 080°54'0 0.2
2018-Feb-22 12:50N 32°02' W 080°54'0 0.2
2018-Feb-22 12:30N 32°02' W 080°54'0 0.2
2018-Feb-22 11:55N 32°02' W 080°54'0 0.0
2018-Feb-22 11:25N 32°02' W 080°54'0 0.1
2018-Feb-22 11:00N 32°02' W 080°54'0 0.0
2018-Feb-22 10:30N 32°02' W 080°54'0 0.0
2018-Feb-22 09:54N 32°02' W 080°54'0 0.0
2018-Feb-22 09:30N 32°02' W 080°54'0 0.0
2018-Feb-22 09:00N 32°02' W 080°54'0 0.0
2018-Feb-22 08:30N 32°02' W 080°54'0 0.0
2018-Feb-22 08:00N 32°02' W 080°54'0 0.0
2018-Feb-22 07:30N 32°02' W 080°54'0 0.0
2018-Feb-22 07:00N 32°02' W 080°54'0 0.1
2018-Feb-22 06:30N 32°02' W 080°54'0 0.1
2018-Feb-22 05:54N 32°02' W 080°54'0 0.0
2018-Feb-22 05:30N 32°02' W 080°54'0 0.1
2018-Feb-22 05:00N 32°02' W 080°55'0 0.1
2018-Feb-22 04:25N 32°02' W 080°55'0 0.0
2018-Feb-22 03:55N 32°02' W 080°55'0 0.0
2018-Feb-22 03:29N 32°02' W 080°54'0 0.0
2018-Feb-22 02:53N 32°02' W 080°54'0 0.0
2018-Feb-22 02:17N 32°02' W 080°54'0 0.0
2018-Feb-22 01:59N 32°02' W 080°54'0 0.0
2018-Feb-22 01:29N 32°02' W 080°54'0 0.0
2018-Feb-22 00:59N 32°02' W 080°54'0 0.0
2018-Feb-22 00:23N 32°02' W 080°54'0 0.2
2018-Feb-21 23:59N 32°02' W 080°54'0 0.0
2018-Feb-21 23:29N 32°02' W 080°54'0 0.0
2018-Feb-21 22:59N 32°02' W 080°54'0 0.0
2018-Feb-21 22:29N 32°02' W 080°54'0 0.0
2018-Feb-21 21:59N 32°02' W 080°54'0 0.1
2018-Feb-21 21:23N 32°02' W 080°54'0 0.1
2018-Feb-21 21:00N 32°02' W 080°54'0 0.1
2018-Feb-21 20:29N 32°02' W 080°54'0 0.0
2018-Feb-21 19:59N 32°02' W 080°54'0 0.0
2018-Feb-21 19:23N 32°02' W 080°54'0 0.0
2018-Feb-21 18:59N 32°02' W 080°54'0 0.0
2018-Feb-21 18:29N 32°02' W 080°54'0 0.0
2018-Feb-21 17:59N 32°02' W 080°54'0 0.0
2018-Feb-21 17:29N 32°02' W 080°54'0 0.1
2018-Feb-21 16:59N 32°02' W 080°54'0 0.1
2018-Feb-21 16:23N 32°02' W 080°54'0 0.0
2018-Feb-21 15:59N 32°02' W 080°54'0 0.0
2018-Feb-21 15:29N 32°02' W 080°54'0 0.0
2018-Feb-21 15:00N 32°02' W 080°54'0 0.1
2018-Feb-21 14:27N 32°02' W 080°55'0 0.0
2018-Feb-21 13:33N 32°02' W 080°55'0 0.1
2018-Feb-21 13:27N 32°02' W 080°55'0 0.0
2018-Feb-21 12:55N 32°02' W 080°54'0 0.0
2018-Feb-21 12:25N 32°02' W 080°54'0 0.2
2018-Feb-21 11:55N 32°02' W 080°54'0 0.0
2018-Feb-21 11:13N 32°02' W 080°54'0 0.0
2018-Feb-21 10:55N 32°02' W 080°54'0 0.0
2018-Feb-21 10:23N 32°02' W 080°54'0 0.0
2018-Feb-21 09:59N 32°02' W 080°54'0 0.0
2018-Feb-21 09:29N 32°02' W 080°54'0 0.0
2018-Feb-21 08:59N 32°02' W 080°54'0 0.0
2018-Feb-21 08:29N 32°02' W 080°54'0 0.0
2018-Feb-21 07:59N 32°02' W 080°54'0 0.0
2018-Feb-21 07:29N 32°02' W 080°54'0 0.0
2018-Feb-21 06:53N 32°02' W 080°54'0 0.1
2018-Feb-21 06:29N 32°02' W 080°54'0 0.0
2018-Feb-21 05:53N 32°02' W 080°54'0 0.1
2018-Feb-21 05:29N 32°02' W 080°54'0 0.2
2018-Feb-21 04:59N 32°02' W 080°54'0 0.0
2018-Feb-21 04:29N 32°02' W 080°54'0 0.0
2018-Feb-21 03:59N 32°02' W 080°54'0 0.0
2018-Feb-21 03:29N 32°02' W 080°54'0 0.0
2018-Feb-21 02:59N 32°02' W 080°54'0 0.0
2018-Feb-21 02:23N 32°02' W 080°54'0 0.0
2018-Feb-21 01:59N 32°02' W 080°54'0 0.0
2018-Feb-21 01:29N 32°02' W 080°54'0 0.1
2018-Feb-21 00:57N 32°02' W 080°55'0 0.0
2018-Feb-21 00:27N 32°02' W 080°55'0 0.1
2018-Feb-20 23:57N 32°02' W 080°55'0 0.3
2018-Feb-20 23:27N 32°02' W 080°54'0 0.0
2018-Feb-20 22:57N 32°02' W 080°54'0 0.0
2018-Feb-20 22:27N 32°02' W 080°54'0 0.0
2018-Feb-20 21:57N 32°02' W 080°54'0 0.0
2018-Feb-20 21:27N 32°02' W 080°54'0 0.0
2018-Feb-20 20:57N 32°02' W 080°54'0 0.0
2018-Feb-20 20:27N 32°02' W 080°54'0 0.0
2018-Feb-20 19:57N 32°02' W 080°54'0 0.0
2018-Feb-20 19:27N 32°02' W 080°54'0 0.0
2018-Feb-20 18:57N 32°02' W 080°54'0 0.0
2018-Feb-20 18:27N 32°02' W 080°54'0 0.0
2018-Feb-20 17:57N 32°02' W 080°54'0 0.1
2018-Feb-20 17:27N 32°02' W 080°54'0 0.2
2018-Feb-20 16:57N 32°02' W 080°54'0 0.0
2018-Feb-20 16:27N 32°02' W 080°55'0 0.0
2018-Feb-20 15:51N 32°02' W 080°54'0 0.0
2018-Feb-20 15:27N 32°02' W 080°54'0 0.0
2018-Feb-20 14:57N 32°02' W 080°54'0 0.0
2018-Feb-20 14:21N 32°02' W 080°54'0 0.0
2018-Feb-20 13:51N 32°02' W 080°54'0 0.0
2018-Feb-20 13:27N 32°02' W 080°54'0 0.0
2018-Feb-20 12:57N 32°02' W 080°54'0 0.0
2018-Feb-20 12:27N 32°02' W 080°54'0 0.0
2018-Feb-20 11:45N 32°02' W 080°54'0 0.0
2018-Feb-20 11:27N 32°02' W 080°54'0 0.2
2018-Feb-20 10:55N 32°02' W 080°54'0 0.1
2018-Feb-20 10:25N 32°02' W 080°54'0 0.0
2018-Feb-20 09:55N 32°02' W 080°54'0 0.0
2018-Feb-20 09:25N 32°02' W 080°54'0 0.0
2018-Feb-20 08:55N 32°02' W 080°54'0 0.0
2018-Feb-20 08:25N 32°02' W 080°54'0 0.0
2018-Feb-20 07:49N 32°02' W 080°54'0 0.0
2018-Feb-20 07:25N 32°02' W 080°54'0 0.0
2018-Feb-20 06:55N 32°02' W 080°54'0 0.0
2018-Feb-20 06:25N 32°02' W 080°54'0 0.0
2018-Feb-20 05:55N 32°02' W 080°54'0 0.0
2018-Feb-20 05:25N 32°02' W 080°54'0 0.0
2018-Feb-20 04:55N 32°02' W 080°54'0 0.2
2018-Feb-20 04:25N 32°02' W 080°54'0 0.0
2018-Feb-20 03:49N 32°02' W 080°54'0 0.1
2018-Feb-20 03:28N 32°02' W 080°55'0 0.0
2018-Feb-20 02:52N 32°02' W 080°55'0 0.1
2018-Feb-20 02:30N 32°02' W 080°54'0 0.0
2018-Feb-20 02:00N 32°02' W 080°54'0 0.0
2018-Feb-20 01:24N 32°02' W 080°54'0 0.0
2018-Feb-20 01:00N 32°02' W 080°54'0 0.0
2018-Feb-20 00:24N 32°02' W 080°54'0 0.0
2018-Feb-20 00:00N 32°02' W 080°54'0 0.0
2018-Feb-19 23:24N 32°02' W 080°54'0 0.2
2018-Feb-19 23:00N 32°02' W 080°54'0 0.1
2018-Feb-19 22:30N 32°02' W 080°54'0 0.0
2018-Feb-19 22:00N 32°02' W 080°54'0 0.0
2018-Feb-19 21:24N 32°02' W 080°54'0 0.0
2018-Feb-19 21:00N 32°02' W 080°54'0 0.0
2018-Feb-19 20:24N 32°02' W 080°54'0 0.0
2018-Feb-19 20:00N 32°02' W 080°54'0 0.0
2018-Feb-19 19:30N 32°02' W 080°54'0 0.1
2018-Feb-19 18:57N 32°02' W 080°54'0 0.0
2018-Feb-19 18:27N 32°02' W 080°54'0 0.0
2018-Feb-19 17:57N 32°02' W 080°54'0 0.0
2018-Feb-19 17:27N 32°02' W 080°54'0 0.0
2018-Feb-19 16:57N 32°02' W 080°54'0 0.2
2018-Feb-19 16:27N 32°02' W 080°54'0 0.1
2018-Feb-19 15:57N 32°02' W 080°54'0 0.0
2018-Feb-19 15:27N 32°02' W 080°54'0 0.0
2018-Feb-19 15:00N 32°02' W 080°54'4 7.3
2018-Feb-19 14:30N 32°02' W 080°50'5 9.5
2018-Feb-19 14:00N 31°58' W 080°47'4 9.1
2018-Feb-19 13:30N 31°54' W 080°49'5 9.2
2018-Feb-19 13:00N 31°50' W 080°51'  
Track history (hours):
 
Tides and Currents Weather Stations Pressure Air Temp Water Temp Dewpoint Dewpoint Depression Visibility Wind Speed Wind Dir Waves Ship Positions

Mr Connor

Owner: Marquette Transportation Company Offshore LLC, Jefferson, LA. More information available from US FCC via Universal Licensing System and Coast Guard Vessel Documentation Center.

Last reported at 2018-Feb-25 19:28 UTC. Time now 2018-Feb-25 19:44 UTC.
Position N 32°02' W 080°54'.

Length 20 m; draft 3 m.

Type: Tug. MMSI: 367430750.

Date/timePositionNaut miles runAvg speedWind from/ knotsBaromVisibWave heightAir tempDewpointWater temp
2018-Feb-25 19:28N 32°02' W 080°54'0 0.0
2018-Feb-25 18:58N 32°02' W 080°54'0 0.0
2018-Feb-25 18:28N 32°02' W 080°54'0 0.0
2018-Feb-25 17:52N 32°02' W 080°55'0 0.0
2018-Feb-25 17:28N 32°02' W 080°55'0 0.0
2018-Feb-25 16:55N 32°02' W 080°54'0 0.2
2018-Feb-25 16:30N 32°02' W 080°54'0 0.2
2018-Feb-25 16:00N 32°02' W 080°54'0 0.0
2018-Feb-25 15:30N 32°02' W 080°54'0 0.0
2018-Feb-25 15:00N 32°02' W 080°54'0 0.0
2018-Feb-25 14:30N 32°02' W 080°54'0 0.0
2018-Feb-25 14:00N 32°02' W 080°54'0 0.0
2018-Feb-25 13:30N 32°02' W 080°54'0 0.0
2018-Feb-25 13:00N 32°02' W 080°54'0 0.0
2018-Feb-25 12:30N 32°02' W 080°54'0 0.0
2018-Feb-25 12:00N 32°02' W 080°54'0 0.0
2018-Feb-25 11:30N 32°02' W 080°54'0 0.1
2018-Feb-25 11:00N 32°02' W 080°54'0 0.0
2018-Feb-25 10:30N 32°02' W 080°54'0 0.1
2018-Feb-25 09:59N 32°02' W 080°54'0 0.2
2018-Feb-25 09:30N 32°02' W 080°54'0 0.0
2018-Feb-25 09:00N 32°02' W 080°54'0 0.1
2018-Feb-25 08:30N 32°02' W 080°54'0 0.0
2018-Feb-25 08:00N 32°02' W 080°54'0 0.0
2018-Feb-25 07:30N 32°02' W 080°54'0 0.0
2018-Feb-25 07:00N 32°02' W 080°54'0 0.0
2018-Feb-25 06:30N 32°02' W 080°54'0 0.0
2018-Feb-25 06:00N 32°02' W 080°54'0 0.0
2018-Feb-25 05:18N 32°02' W 080°54'0 0.0
2018-Feb-25 05:00N 32°02' W 080°54'0 0.0
2018-Feb-25 04:30N 32°02' W 080°54'0 0.0
2018-Feb-25 04:00N 32°02' W 080°54'0 0.1
2018-Feb-25 03:30N 32°02' W 080°54'0 0.1
2018-Feb-25 03:00N 32°02' W 080°54'0 0.0
2018-Feb-25 02:30N 32°02' W 080°54'0 0.1
2018-Feb-25 02:00N 32°02' W 080°54'0 0.0
2018-Feb-25 01:30N 32°02' W 080°54'0 0.0
2018-Feb-25 01:00N 32°02' W 080°54'2 4.6
2018-Feb-25 00:30N 32°04' W 080°57'4 8.9
2018-Feb-25 00:00N 32°05' W 081°01'4 8.3
2018-Feb-24 23:30N 32°06' W 081°06'0 0.5
2018-Feb-24 23:00N 32°06' W 081°07'0 0.0
2018-Feb-24 22:30N 32°06' W 081°07'2 4.9
2018-Feb-24 22:00N 32°05' W 081°04'0 0.9
2018-Feb-24 21:30N 32°05' W 081°03'0 0.9
2018-Feb-24 21:00N 32°05' W 081°04'0 0.0
2018-Feb-24 20:30N 32°05' W 081°04'0 0.0
2018-Feb-24 20:00N 32°05' W 081°04'0 0.0
2018-Feb-24 19:30N 32°05' W 081°04'0 0.0
2018-Feb-24 19:00N 32°05' W 081°04'0 0.0
2018-Feb-24 18:30N 32°05' W 081°04'0 0.0
2018-Feb-24 18:00N 32°05' W 081°04'0 0.0
2018-Feb-24 17:30N 32°05' W 081°04'0 0.0
2018-Feb-24 17:00N 32°05' W 081°04'0 0.0
2018-Feb-24 16:30N 32°05' W 081°04'0 0.0
2018-Feb-24 16:00N 32°05' W 081°04'0 0.0
2018-Feb-24 15:30N 32°05' W 081°04'0 0.0
2018-Feb-24 15:00N 32°05' W 081°04'0 0.0
2018-Feb-24 14:30N 32°05' W 081°04'0 0.0
2018-Feb-24 14:00N 32°05' W 081°04'0 0.0
2018-Feb-24 13:30N 32°05' W 081°04'0 0.0
2018-Feb-24 13:00N 32°05' W 081°04'0 0.0
2018-Feb-24 12:30N 32°05' W 081°04'0 0.3
2018-Feb-24 12:00N 32°05' W 081°04'2 3.5
2018-Feb-24 11:30N 32°05' W 081°02'1 2.9
2018-Feb-24 11:00N 32°06' W 081°00'1 2.3
2018-Feb-24 10:30N 32°05' W 080°59'1 1.4
2018-Feb-24 10:00N 32°05' W 080°59'2 3.4
2018-Feb-24 09:30N 32°04' W 080°57'2 4.1
2018-Feb-24 09:00N 32°02' W 080°55'1 1.0
2018-Feb-24 08:29N 32°02' W 080°54'0 0.1
2018-Feb-24 07:58N 32°02' W 080°54'0 0.0
2018-Feb-24 07:16N 32°02' W 080°55'0 0.0
2018-Feb-24 06:46N 32°02' W 080°55'0 0.1
2018-Feb-24 06:30N 32°02' W 080°54'0 0.0
2018-Feb-24 06:01N 32°02' W 080°54'0 0.0
2018-Feb-24 05:30N 32°02' W 080°54'0 0.0
2018-Feb-24 05:00N 32°02' W 080°54'0 0.0
2018-Feb-24 04:30N 32°02' W 080°54'0 0.0
2018-Feb-24 04:01N 32°02' W 080°54'0 0.0
2018-Feb-24 03:30N 32°02' W 080°54'0 0.0
2018-Feb-24 03:00N 32°02' W 080°54'0 0.0
2018-Feb-24 02:30N 32°02' W 080°54'0 0.2
2018-Feb-24 02:00N 32°02' W 080°54'0 0.0
2018-Feb-24 01:30N 32°02' W 080°54'0 0.0
2018-Feb-24 01:00N 32°02' W 080°54'0 0.0
2018-Feb-24 00:30N 32°02' W 080°54'0 0.0
2018-Feb-23 23:51N 32°02' W 080°54'0 0.0
2018-Feb-23 23:27N 32°02' W 080°54'0 0.0
2018-Feb-23 22:57N 32°02' W 080°54'0 0.0
2018-Feb-23 22:29N 32°02' W 080°54'0 0.0
2018-Feb-23 21:58N 32°02' W 080°54'0 0.0
2018-Feb-23 21:28N 32°02' W 080°54'0 0.0
2018-Feb-23 20:58N 32°02' W 080°54'0 0.0
2018-Feb-23 20:22N 32°02' W 080°54'0 0.0
2018-Feb-23 19:52N 32°02' W 080°54'0 0.2
2018-Feb-23 19:22N 32°02' W 080°54'0 0.1
2018-Feb-23 18:58N 32°02' W 080°54'0 0.0
2018-Feb-23 18:28N 32°02' W 080°54'0 0.0
2018-Feb-23 17:52N 32°02' W 080°54'0 0.0
2018-Feb-23 17:22N 32°02' W 080°54'0 0.0
2018-Feb-23 16:58N 32°02' W 080°54'0 0.1
2018-Feb-23 16:28N 32°02' W 080°55'0 0.1
2018-Feb-23 15:46N 32°02' W 080°54'0 0.1
2018-Feb-23 15:28N 32°02' W 080°54'0 0.0
2018-Feb-23 14:58N 32°02' W 080°54'0 0.0
2018-Feb-23 14:28N 32°02' W 080°54'0 0.2
2018-Feb-23 13:52N 32°02' W 080°54'0 0.0
2018-Feb-23 13:22N 32°02' W 080°54'0 0.0
2018-Feb-23 12:52N 32°02' W 080°54'0 0.0
2018-Feb-23 12:28N 32°02' W 080°54'0 0.0
2018-Feb-23 11:52N 32°02' W 080°54'0 0.0
2018-Feb-23 11:28N 32°02' W 080°54'0 0.0
2018-Feb-23 10:58N 32°02' W 080°54'0 0.0
2018-Feb-23 10:28N 32°02' W 080°54'0 0.0
2018-Feb-23 09:58N 32°02' W 080°54'0 0.0
2018-Feb-23 09:28N 32°02' W 080°54'0 0.0
2018-Feb-23 08:58N 32°02' W 080°54'0 0.0
2018-Feb-23 08:28N 32°02' W 080°54'0 0.0
2018-Feb-23 07:58N 32°02' W 080°54'0 0.0
2018-Feb-23 07:28N 32°02' W 080°54'0 0.2
2018-Feb-23 06:58N 32°02' W 080°54'0 0.1
2018-Feb-23 06:28N 32°02' W 080°54'0 0.0
2018-Feb-23 05:52N 32°02' W 080°54'0 0.0
2018-Feb-23 05:28N 32°02' W 080°54'0 0.0
2018-Feb-23 04:58N 32°02' W 080°54'0 0.0
2018-Feb-23 04:28N 32°02' W 080°54'0 0.0
2018-Feb-23 03:58N 32°02' W 080°54'0 0.0
2018-Feb-23 03:28N 32°02' W 080°54'0 0.0
2018-Feb-23 02:58N 32°02' W 080°54'0 0.0
2018-Feb-23 02:28N 32°02' W 080°54'0 0.0
2018-Feb-23 01:40N 32°02' W 080°54'0 0.0
2018-Feb-23 01:28N 32°02' W 080°54'0 0.2
2018-Feb-23 00:58N 32°02' W 080°54'0 0.0
2018-Feb-23 00:28N 32°02' W 080°54'0 0.0
2018-Feb-22 23:58N 32°02' W 080°54'0 0.0
2018-Feb-22 23:28N 32°02' W 080°54'0 0.0
2018-Feb-22 22:40N 32°02' W 080°54'0 0.0
2018-Feb-22 22:28N 32°02' W 080°54'0 0.0
2018-Feb-22 21:52N 32°02' W 080°54'0 0.0
2018-Feb-22 21:28N 32°02' W 080°54'0 0.0
2018-Feb-22 20:40N 32°02' W 080°54'0 0.0
2018-Feb-22 20:10N 32°02' W 080°54'0 0.1
2018-Feb-22 19:58N 32°02' W 080°54'0 0.0
2018-Feb-22 19:28N 32°02' W 080°54'0 0.0
2018-Feb-22 18:52N 32°02' W 080°54'0 0.3
2018-Feb-22 18:31N 32°02' W 080°54'0 0.0
2018-Feb-22 17:50N 32°02' W 080°55'0 0.0
2018-Feb-22 17:26N 32°02' W 080°55'0 0.0
2018-Feb-22 16:50N 32°02' W 080°54'0 0.0
2018-Feb-22 16:26N 32°02' W 080°54'0 0.0
2018-Feb-22 15:56N 32°02' W 080°54'0 0.0
2018-Feb-22 15:26N 32°02' W 080°54'0 0.0
2018-Feb-22 14:50N 32°02' W 080°54'0 0.0
2018-Feb-22 14:20N 32°02' W 080°54'0 0.0
2018-Feb-22 13:56N 32°02' W 080°54'0 0.0
2018-Feb-22 13:02N 32°02' W 080°54'0 0.2
2018-Feb-22 12:50N 32°02' W 080°54'0 0.2
2018-Feb-22 12:30N 32°02' W 080°54'0 0.2
2018-Feb-22 11:55N 32°02' W 080°54'0 0.0
2018-Feb-22 11:25N 32°02' W 080°54'0 0.1
2018-Feb-22 11:00N 32°02' W 080°54'0 0.0
2018-Feb-22 10:30N 32°02' W 080°54'0 0.0
2018-Feb-22 09:54N 32°02' W 080°54'0 0.0
2018-Feb-22 09:30N 32°02' W 080°54'0 0.0
2018-Feb-22 09:00N 32°02' W 080°54'0 0.0
2018-Feb-22 08:30N 32°02' W 080°54'0 0.0
2018-Feb-22 08:00N 32°02' W 080°54'0 0.0
2018-Feb-22 07:30N 32°02' W 080°54'0 0.0
2018-Feb-22 07:00N 32°02' W 080°54'0 0.1
2018-Feb-22 06:30N 32°02' W 080°54'0 0.1
2018-Feb-22 05:54N 32°02' W 080°54'0 0.0
2018-Feb-22 05:30N 32°02' W 080°54'0 0.1
2018-Feb-22 05:00N 32°02' W 080°55'0 0.1
2018-Feb-22 04:25N 32°02' W 080°55'0 0.0
2018-Feb-22 03:55N 32°02' W 080°55'0 0.0
2018-Feb-22 03:29N 32°02' W 080°54'0 0.0
2018-Feb-22 02:53N 32°02' W 080°54'0 0.0
2018-Feb-22 02:17N 32°02' W 080°54'0 0.0
2018-Feb-22 01:59N 32°02' W 080°54'0 0.0
2018-Feb-22 01:29N 32°02' W 080°54'0 0.0
2018-Feb-22 00:59N 32°02' W 080°54'0 0.0
2018-Feb-22 00:23N 32°02' W 080°54'0 0.2
2018-Feb-21 23:59N 32°02' W 080°54'0 0.0
2018-Feb-21 23:29N 32°02' W 080°54'0 0.0
2018-Feb-21 22:59N 32°02' W 080°54'0 0.0
2018-Feb-21 22:29N 32°02' W 080°54'0 0.0
2018-Feb-21 21:59N 32°02' W 080°54'0 0.1
2018-Feb-21 21:23N 32°02' W 080°54'0 0.1
2018-Feb-21 21:00N 32°02' W 080°54'0 0.1
2018-Feb-21 20:29N 32°02' W 080°54'0 0.0
2018-Feb-21 19:59N 32°02' W 080°54'0 0.0
2018-Feb-21 19:23N 32°02' W 080°54'0 0.0
2018-Feb-21 18:59N 32°02' W 080°54'0 0.0
2018-Feb-21 18:29N 32°02' W 080°54'0 0.0
2018-Feb-21 17:59N 32°02' W 080°54'0 0.0
2018-Feb-21 17:29N 32°02' W 080°54'0 0.1
2018-Feb-21 16:59N 32°02' W 080°54'0 0.1
2018-Feb-21 16:23N 32°02' W 080°54'0 0.0
2018-Feb-21 15:59N 32°02' W 080°54'0 0.0
2018-Feb-21 15:29N 32°02' W 080°54'0 0.0
2018-Feb-21 15:00N 32°02' W 080°54'0 0.1
2018-Feb-21 14:27N 32°02' W 080°55'0 0.0
2018-Feb-21 13:33N 32°02' W 080°55'0 0.1
2018-Feb-21 13:27N 32°02' W 080°55'0 0.0
2018-Feb-21 12:55N 32°02' W 080°54'0 0.0
2018-Feb-21 12:25N 32°02' W 080°54'0 0.2
2018-Feb-21 11:55N 32°02' W 080°54'0 0.0
2018-Feb-21 11:13N 32°02' W 080°54'0 0.0
2018-Feb-21 10:55N 32°02' W 080°54'0 0.0
2018-Feb-21 10:23N 32°02' W 080°54'0 0.0
2018-Feb-21 09:59N 32°02' W 080°54'0 0.0
2018-Feb-21 09:29N 32°02' W 080°54'0 0.0
2018-Feb-21 08:59N 32°02' W 080°54'0 0.0
2018-Feb-21 08:29N 32°02' W 080°54'0 0.0
2018-Feb-21 07:59N 32°02' W 080°54'0 0.0
2018-Feb-21 07:29N 32°02' W 080°54'0 0.0
2018-Feb-21 06:53N 32°02' W 080°54'0 0.1
2018-Feb-21 06:29N 32°02' W 080°54'0 0.0
2018-Feb-21 05:53N 32°02' W 080°54'0 0.1
2018-Feb-21 05:29N 32°02' W 080°54'0 0.2
2018-Feb-21 04:59N 32°02' W 080°54'0 0.0
2018-Feb-21 04:29N 32°02' W 080°54'0 0.0
2018-Feb-21 03:59N 32°02' W 080°54'0 0.0
2018-Feb-21 03:29N 32°02' W 080°54'0 0.0
2018-Feb-21 02:59N 32°02' W 080°54'0 0.0
2018-Feb-21 02:23N 32°02' W 080°54'0 0.0
2018-Feb-21 01:59N 32°02' W 080°54'0 0.0
2018-Feb-21 01:29N 32°02' W 080°54'0 0.1
2018-Feb-21 00:57N 32°02' W 080°55'0 0.0
2018-Feb-21 00:27N 32°02' W 080°55'0 0.1
2018-Feb-20 23:57N 32°02' W 080°55'0 0.3
2018-Feb-20 23:27N 32°02' W 080°54'0 0.0
2018-Feb-20 22:57N 32°02' W 080°54'0 0.0
2018-Feb-20 22:27N 32°02' W 080°54'0 0.0
2018-Feb-20 21:57N 32°02' W 080°54'0 0.0
2018-Feb-20 21:27N 32°02' W 080°54'0 0.0
2018-Feb-20 20:57N 32°02' W 080°54'0 0.0
2018-Feb-20 20:27N 32°02' W 080°54'0 0.0
2018-Feb-20 19:57N 32°02' W 080°54'0 0.0
2018-Feb-20 19:27N 32°02' W 080°54'0 0.0
2018-Feb-20 18:57N 32°02' W 080°54'0 0.0
2018-Feb-20 18:27N 32°02' W 080°54'0 0.0
2018-Feb-20 17:57N 32°02' W 080°54'0 0.1
2018-Feb-20 17:27N 32°02' W 080°54'0 0.2
2018-Feb-20 16:57N 32°02' W 080°54'0 0.0
2018-Feb-20 16:27N 32°02' W 080°55'0 0.0
2018-Feb-20 15:51N 32°02' W 080°54'0 0.0
2018-Feb-20 15:27N 32°02' W 080°54'0 0.0
2018-Feb-20 14:57N 32°02' W 080°54'0 0.0
2018-Feb-20 14:21N 32°02' W 080°54'0 0.0
2018-Feb-20 13:51N 32°02' W 080°54'0 0.0
2018-Feb-20 13:27N 32°02' W 080°54'0 0.0
2018-Feb-20 12:57N 32°02' W 080°54'0 0.0
2018-Feb-20 12:27N 32°02' W 080°54'0 0.0
2018-Feb-20 11:45N 32°02' W 080°54'0 0.0
2018-Feb-20 11:27N 32°02' W 080°54'0 0.2
2018-Feb-20 10:55N 32°02' W 080°54'0 0.1
2018-Feb-20 10:25N 32°02' W 080°54'0 0.0
2018-Feb-20 09:55N 32°02' W 080°54'0 0.0
2018-Feb-20 09:25N 32°02' W 080°54'0 0.0
2018-Feb-20 08:55N 32°02' W 080°54'0 0.0
2018-Feb-20 08:25N 32°02' W 080°54'0 0.0
2018-Feb-20 07:49N 32°02' W 080°54'0 0.0
2018-Feb-20 07:25N 32°02' W 080°54'0 0.0
2018-Feb-20 06:55N 32°02' W 080°54'0 0.0
2018-Feb-20 06:25N 32°02' W 080°54'0 0.0
2018-Feb-20 05:55N 32°02' W 080°54'0 0.0
2018-Feb-20 05:25N 32°02' W 080°54'0 0.0
2018-Feb-20 04:55N 32°02' W 080°54'0 0.2
2018-Feb-20 04:25N 32°02' W 080°54'0 0.0
2018-Feb-20 03:49N 32°02' W 080°54'0 0.1
2018-Feb-20 03:28N 32°02' W 080°55'0 0.0
2018-Feb-20 02:52N 32°02' W 080°55'0 0.1
2018-Feb-20 02:30N 32°02' W 080°54'0 0.0
2018-Feb-20 02:00N 32°02' W 080°54'0 0.0
2018-Feb-20 01:24N 32°02' W 080°54'0 0.0
2018-Feb-20 01:00N 32°02' W 080°54'0 0.0
2018-Feb-20 00:24N 32°02' W 080°54'0 0.0
2018-Feb-20 00:00N 32°02' W 080°54'0 0.0
2018-Feb-19 23:24N 32°02' W 080°54'0 0.2
2018-Feb-19 23:00N 32°02' W 080°54'0 0.1
2018-Feb-19 22:30N 32°02' W 080°54'0 0.0
2018-Feb-19 22:00N 32°02' W 080°54'0 0.0
2018-Feb-19 21:24N 32°02' W 080°54'0 0.0
2018-Feb-19 21:00N 32°02' W 080°54'0 0.0
2018-Feb-19 20:24N 32°02' W 080°54'0 0.0
2018-Feb-19 20:00N 32°02' W 080°54'0 0.0
2018-Feb-19 19:30N 32°02' W 080°54'0 0.1
2018-Feb-19 18:57N 32°02' W 080°54'0 0.0
2018-Feb-19 18:27N 32°02' W 080°54'0 0.0
2018-Feb-19 17:57N 32°02' W 080°54'0 0.0
2018-Feb-19 17:27N 32°02' W 080°54'0 0.0
2018-Feb-19 16:57N 32°02' W 080°54'0 0.2
2018-Feb-19 16:27N 32°02' W 080°54'0 0.1
2018-Feb-19 15:57N 32°02' W 080°54'0 0.0
2018-Feb-19 15:27N 32°02' W 080°54'0 0.0
2018-Feb-19 15:00N 32°02' W 080°54'4 7.3
2018-Feb-19 14:30N 32°02' W 080°50'5 9.5
2018-Feb-19 14:00N 31°58' W 080°47'4 9.1
2018-Feb-19 13:30N 31°54' W 080°49'5 9.2
2018-Feb-19 13:00N 31°50' W 080°51'  

Dump ship's entire track history